Sandanski, Bulgaria
Current Conditions -  °F | °C
As of 9:20 PM on Friday 24 Oct 2014 (Local Time) from LGTS Reporting Station
Broken Clouds Broken Clouds  
Wind Chill: 57°   Ceiling: 2500
Heat Index: 57°   Visibility: 6mi
Dew Point: 48°   Wind: 12mph
Humidity: 72%   Direction: 20°NNE
Pressure: 29.62"   Gusts: NA
Location:  41.56°N, 23.29°E
Report Text: LGTS 241820Z 02010KT 9999 FEW014 FEW018TCU BKN025 BKN080 14/09 Q1003 NOSIG
Loading
Personal Weather Stations






























Interactive Weather Map
Tropical Storm Tracking
New forecast layout! Learn more

10-Day Weather Forecast

Advertisements
Track Severe Weather on mobile